sensor_id;sensor_type;location;lat;lon;timestamp;pressure;altitude;pressure_sealevel;temperature;humidity
69535;BME280;56754;51.568;5.048;2022-12-29T00:00:34;99987.88;;;13.75;67.12
69535;BME280;56754;51.568;5.048;2022-12-29T00:02:59;99975.56;;;13.74;67.04
69535;BME280;56754;51.568;5.048;2022-12-29T00:05:25;99978.63;;;13.73;67.26
69535;BME280;56754;51.568;5.048;2022-12-29T00:07:50;99978.19;;;13.71;67.42
69535;BME280;56754;51.568;5.048;2022-12-29T00:10:15;99973.16;;;13.69;67.19
69535;BME280;56754;51.568;5.048;2022-12-29T00:12:40;99968.91;;;13.68;67.09
69535;BME280;56754;51.568;5.048;2022-12-29T00:15:06;99955.88;;;13.67;67.44
69535;BME280;56754;51.568;5.048;2022-12-29T00:17:31;99958.53;;;13.67;67.42
69535;BME280;56754;51.568;5.048;2022-12-29T00:19:57;99963.81;;;13.63;67.42
69535;BME280;56754;51.568;5.048;2022-12-29T00:22:22;99949.97;;;13.61;67.05
69535;BME280;56754;51.568;5.048;2022-12-29T00:24:47;99947.63;;;13.59;67.24
69535;BME280;56754;51.568;5.048;2022-12-29T00:27:13;99940.28;;;13.56;67.27
69535;BME280;56754;51.568;5.048;2022-12-29T00:29:38;99939.06;;;13.54;67.74
69535;BME280;56754;51.568;5.048;2022-12-29T00:32:07;99942.53;;;13.54;67.36
69535;BME280;56754;51.568;5.048;2022-12-29T00:34:34;99937.53;;;13.53;67.79
69535;BME280;56754;51.568;5.048;2022-12-29T00:37:00;99935.97;;;13.52;68.04
69535;BME280;56754;51.568;5.048;2022-12-29T00:39:25;99933.28;;;13.52;67.97
69535;BME280;56754;51.568;5.048;2022-12-29T00:41:50;99920.22;;;13.50;67.82
69535;BME280;56754;51.568;5.048;2022-12-29T00:44:16;99925.25;;;13.52;68.28
69535;BME280;56754;51.568;5.048;2022-12-29T00:46:42;99924.81;;;13.50;68.44
69535;BME280;56754;51.568;5.048;2022-12-29T00:49:10;99923.22;;;13.49;68.12
69535;BME280;56754;51.568;5.048;2022-12-29T00:51:36;99910.16;;;13.47;68.38
69535;BME280;56754;51.568;5.048;2022-12-29T00:54:04;99908.63;;;13.46;68.48
69535;BME280;56754;51.568;5.048;2022-12-29T00:56:29;99905.13;;;13.46;68.23
69535;BME280;56754;51.568;5.048;2022-12-29T00:58:54;99895.53;;;13.45;68.52
69535;BME280;56754;51.568;5.048;2022-12-29T01:01:20;99903.97;;;13.43;68.30
69535;BME280;56754;51.568;5.048;2022-12-29T01:03:45;99895.91;;;13.43;68.42
69535;BME280;56754;51.568;5.048;2022-12-29T01:06:11;99888.97;;;13.42;68.43
69535;BME280;56754;51.568;5.048;2022-12-29T01:08:37;99897.38;;;13.40;68.50
69535;BME280;56754;51.568;5.048;2022-12-29T01:11:12;99896.94;;;13.38;68.56
69535;BME280;56754;51.568;5.048;2022-12-29T01:13:38;99891.56;;;13.38;68.41
69535;BME280;56754;51.568;5.048;2022-12-29T01:16:05;99890.03;;;13.37;68.45
69535;BME280;56754;51.568;5.048;2022-12-29T01:18:31;99883.44;;;13.35;68.72
69535;BME280;56754;51.568;5.048;2022-12-29T01:21:00;99878.09;;;13.35;68.79
69535;BME280;56754;51.568;5.048;2022-12-29T01:23:26;99877.31;;;13.34;68.56
69535;BME280;56754;51.568;5.048;2022-12-29T01:25:51;99881.09;;;13.33;68.59
69535;BME280;56754;51.568;5.048;2022-12-29T01:28:17;99860.78;;;13.32;68.89
69535;BME280;56754;51.568;5.048;2022-12-29T01:30:42;99879.56;;;13.32;68.75
69535;BME280;56754;51.568;5.048;2022-12-29T01:33:07;99870.72;;;13.32;68.87
69535;BME280;56754;51.568;5.048;2022-12-29T01:35:32;99871.84;;;13.31;68.89
69535;BME280;56754;51.568;5.048;2022-12-29T01:37:58;99867.63;;;13.30;68.80
69535;BME280;56754;51.568;5.048;2022-12-29T01:40:23;99872.22;;;13.29;68.85
69535;BME280;56754;51.568;5.048;2022-12-29T01:42:49;99879.06;;;13.27;68.87
69535;BME280;56754;51.568;5.048;2022-12-29T01:45:16;99873.69;;;13.27;68.77
69535;BME280;56754;51.568;5.048;2022-12-29T01:48:08;99884.41;;;13.27;69.00
69535;BME280;56754;51.568;5.048;2022-12-29T01:50:41;99875.91;;;13.25;68.26
69535;BME280;56754;51.568;5.048;2022-12-29T01:53:11;99872.44;;;13.24;69.12
69535;BME280;56754;51.568;5.048;2022-12-29T01:55:46;99860.94;;;13.24;68.83
69535;BME280;56754;51.568;5.048;2022-12-29T01:58:14;99869.75;;;13.24;68.57
69535;BME280;56754;51.568;5.048;2022-12-29T02:00:41;99868.97;;;13.24;69.01
69535;BME280;56754;51.568;5.048;2022-12-29T02:03:07;99884.31;;;13.23;68.83
69535;BME280;56754;51.568;5.048;2022-12-29T02:06:20;99870.47;;;13.21;67.99
69535;BME280;56754;51.568;5.048;2022-12-29T02:08:28;99868.91;;;13.20;68.38
69535;BME280;56754;51.568;5.048;2022-12-29T02:10:53;99865.47;;;13.19;68.19
69535;BME280;56754;51.568;5.048;2022-12-29T02:13:20;99879.97;;;13.18;68.27
69535;BME280;56754;51.568;5.048;2022-12-29T02:21:22;99863.88;;;13.18;68.46
69535;BME280;56754;51.568;5.048;2022-12-29T02:26:55;99851.25;;;13.19;67.63
69535;BME280;56754;51.568;5.048;2022-12-29T02:37:59;99863.03;;;13.14;68.63
69535;BME280;56754;51.568;5.048;2022-12-29T02:40:39;99839.22;;;13.13;67.28
69535;BME280;56754;51.568;5.048;2022-12-29T02:43:26;99868.34;;;13.11;68.14
69535;BME280;56754;51.568;5.048;2022-12-29T02:45:58;99855.25;;;13.09;68.03
69535;BME280;56754;51.568;5.048;2022-12-29T02:48:41;99859.84;;;13.09;68.15
69535;BME280;56754;51.568;5.048;2022-12-29T02:51:46;99861.38;;;13.10;68.21
69535;BME280;56754;51.568;5.048;2022-12-29T02:54:18;99853.34;;;13.10;68.13
69535;BME280;56754;51.568;5.048;2022-12-29T02:56:43;99854.91;;;13.11;68.24
69535;BME280;56754;51.568;5.048;2022-12-29T02:59:09;99851.47;;;13.10;69.05
69535;BME280;56754;51.568;5.048;2022-12-29T03:11:59;99861.75;;;13.08;68.02
69535;BME280;56754;51.568;5.048;2022-12-29T03:14:34;99855.94;;;13.06;68.66
69535;BME280;56754;51.568;5.048;2022-12-29T03:17:08;99852.84;;;13.04;68.73
69535;BME280;56754;51.568;5.048;2022-12-29T03:19:36;99847.47;;;13.04;68.46
69535;BME280;56754;51.568;5.048;2022-12-29T03:22:06;99855.09;;;13.02;68.39
69535;BME280;56754;51.568;5.048;2022-12-29T03:24:36;99845.16;;;13.03;69.17
69535;BME280;56754;51.568;5.048;2022-12-29T03:27:05;99852.75;;;13.01;69.30
69535;BME280;56754;51.568;5.048;2022-12-29T03:29:36;99850.06;;;13.01;68.71
69535;BME280;56754;51.568;5.048;2022-12-29T03:32:03;99858.47;;;12.99;68.79
69535;BME280;56754;51.568;5.048;2022-12-29T03:34:30;99848.09;;;12.97;68.62
69535;BME280;56754;51.568;5.048;2022-12-29T03:37:05;99858.03;;;12.97;69.21
69535;BME280;56754;51.568;5.048;2022-12-29T03:39:31;99850.00;;;12.97;68.78
69535;BME280;56754;51.568;5.048;2022-12-29T03:42:04;99851.91;;;12.96;68.94
69535;BME280;56754;51.568;5.048;2022-12-29T03:44:36;99852.25;;;12.95;69.57
69535;BME280;56754;51.568;5.048;2022-12-29T03:47:02;99844.19;;;12.95;68.90
69535;BME280;56754;51.568;5.048;2022-12-29T03:49:27;99851.47;;;12.94;69.07
69535;BME280;56754;51.568;5.048;2022-12-29T03:51:52;99852.59;;;12.93;68.54
69535;BME280;56754;51.568;5.048;2022-12-29T03:54:18;99856.06;;;12.94;69.23
69535;BME280;56754;51.568;5.048;2022-12-29T03:56:43;99848.34;;;12.92;68.31
69535;BME280;56754;51.568;5.048;2022-12-29T03:59:08;99850.25;;;12.92;69.57
69535;BME280;56754;51.568;5.048;2022-12-29T04:01:34;99846.81;;;12.91;69.50
69535;BME280;56754;51.568;5.048;2022-12-29T04:03:59;99860.22;;;12.91;69.31
69535;BME280;56754;51.568;5.048;2022-12-29T04:06:24;99860.22;;;12.91;69.51
69535;BME280;56754;51.568;5.048;2022-12-29T04:08:49;99861.00;;;12.92;69.17
69535;BME280;56754;51.568;5.048;2022-12-29T04:11:15;99866.34;;;12.92;69.67
69535;BME280;56754;51.568;5.048;2022-12-29T04:13:40;99861.75;;;12.92;69.67
69535;BME280;56754;51.568;5.048;2022-12-29T04:16:05;99867.13;;;12.92;69.61
69535;BME280;56754;51.568;5.048;2022-12-29T04:18:31;99867.94;;;12.93;68.76
69535;BME280;56754;51.568;5.048;2022-12-29T04:20:56;99864.88;;;12.94;68.68
69535;BME280;56754;51.568;5.048;2022-12-29T04:23:22;99857.97;;;12.93;68.71
69535;BME280;56754;51.568;5.048;2022-12-29T04:25:47;99863.66;;;12.92;69.12
69535;BME280;56754;51.568;5.048;2022-12-29T04:28:14;99877.84;;;12.92;68.90
69535;BME280;56754;51.568;5.048;2022-12-29T04:30:39;99886.25;;;12.91;68.61
69535;BME280;56754;51.568;5.048;2022-12-29T04:33:05;99907.72;;;12.91;68.77
69535;BME280;56754;51.568;5.048;2022-12-29T04:35:30;99900.81;;;12.90;67.74
69535;BME280;56754;51.568;5.048;2022-12-29T04:37:55;99908.41;;;12.88;68.58
69535;BME280;56754;51.568;5.048;2022-12-29T04:40:21;99911.09;;;12.88;67.93
69535;BME280;56754;51.568;5.048;2022-12-29T04:42:46;99903.81;;;12.88;67.96
69535;BME280;56754;51.568;5.048;2022-12-29T04:45:11;99904.19;;;12.87;69.31
69535;BME280;56754;51.568;5.048;2022-12-29T04:47:37;99907.97;;;12.86;68.02
69535;BME280;56754;51.568;5.048;2022-12-29T04:50:02;99905.28;;;12.86;67.97
69535;BME280;56754;51.568;5.048;2022-12-29T04:52:28;99914.47;;;12.85;67.39
69535;BME280;56754;51.568;5.048;2022-12-29T04:54:53;99903.28;;;12.83;67.87
69535;BME280;56754;51.568;5.048;2022-12-29T04:57:18;99913.59;;;12.81;68.28
69535;BME280;56754;51.568;5.048;2022-12-29T04:59:44;99917.41;;;12.80;68.18
69535;BME280;56754;51.568;5.048;2022-12-29T05:02:09;99914.28;;;12.78;68.15
69535;BME280;56754;51.568;5.048;2022-12-29T05:04:34;99924.22;;;12.77;68.63
69535;BME280;56754;51.568;5.048;2022-12-29T05:06:59;99928.03;;;12.76;67.53
69535;BME280;56754;51.568;5.048;2022-12-29T05:09:25;99928.72;;;12.73;68.36
69535;BME280;56754;51.568;5.048;2022-12-29T05:11:51;99930.97;;;12.71;68.75
69535;BME280;56754;51.568;5.048;2022-12-29T05:14:16;99933.25;;;12.69;66.64
69535;BME280;56754;51.568;5.048;2022-12-29T05:16:42;99938.16;;;12.67;68.00
69535;BME280;56754;51.568;5.048;2022-12-29T05:19:07;99945.75;;;12.65;67.15
69535;BME280;56754;51.568;5.048;2022-12-29T05:21:32;99938.50;;;12.65;68.23
69535;BME280;56754;51.568;5.048;2022-12-29T05:23:57;99945.75;;;12.65;67.45
69535;BME280;56754;51.568;5.048;2022-12-29T05:26:23;99947.66;;;12.64;67.15
69535;BME280;56754;51.568;5.048;2022-12-29T05:28:48;99948.00;;;12.63;66.49
69535;BME280;56754;51.568;5.048;2022-12-29T05:31:14;99945.66;;;12.61;67.47
69535;BME280;56754;51.568;5.048;2022-12-29T05:33:39;99952.94;;;12.61;66.10
69535;BME280;56754;51.568;5.048;2022-12-29T05:36:06;99964.44;;;12.61;67.50
69535;BME280;56754;51.568;5.048;2022-12-29T05:38:32;99969.03;;;12.61;68.44
69535;BME280;56754;51.568;5.048;2022-12-29T05:40:57;99967.56;;;12.63;68.62
69535;BME280;56754;51.568;5.048;2022-12-29T05:43:22;99972.13;;;12.63;68.17
69535;BME280;56754;51.568;5.048;2022-12-29T05:45:49;99966.75;;;12.63;68.17
69535;BME280;56754;51.568;5.048;2022-12-29T05:48:14;99969.44;;;12.63;67.98
69535;BME280;56754;51.568;5.048;2022-12-29T05:50:39;99979.06;;;12.64;68.03
69535;BME280;56754;51.568;5.048;2022-12-29T05:53:04;99973.69;;;12.64;68.82
69535;BME280;56754;51.568;5.048;2022-12-29T05:55:30;99978.28;;;12.63;67.31
69535;BME280;56754;51.568;5.048;2022-12-29T05:57:56;99977.47;;;12.63;66.30
69535;BME280;56754;51.568;5.048;2022-12-29T06:00:21;99980.53;;;12.61;68.56
69535;BME280;56754;51.568;5.048;2022-12-29T06:02:47;99965.22;;;12.62;68.87
69535;BME280;56754;51.568;5.048;2022-12-29T06:05:12;99959.84;;;12.62;68.30
69535;BME280;56754;51.568;5.048;2022-12-29T06:07:37;99960.63;;;12.62;67.75
69535;BME280;56754;51.568;5.048;2022-12-29T06:10:04;99972.91;;;12.63;69.07
69535;BME280;56754;51.568;5.048;2022-12-29T06:12:29;99972.13;;;12.63;67.06
69535;BME280;56754;51.568;5.048;2022-12-29T06:14:55;99973.25;;;12.62;66.65
69535;BME280;56754;51.568;5.048;2022-12-29T06:17:20;99967.13;;;12.61;67.20
69535;BME280;56754;51.568;5.048;2022-12-29T06:19:45;99963.66;;;12.61;66.55
69535;BME280;56754;51.568;5.048;2022-12-29T06:22:10;99969.03;;;12.61;68.35
69535;BME280;56754;51.568;5.048;2022-12-29T06:24:36;99964.75;;;12.60;68.60
69535;BME280;56754;51.568;5.048;2022-12-29T06:27:01;99945.22;;;12.59;66.67
69535;BME280;56754;51.568;5.048;2022-12-29T06:29:26;99958.63;;;12.59;67.28
69535;BME280;56754;51.568;5.048;2022-12-29T06:31:51;99948.59;;;12.56;66.95
69535;BME280;56754;51.568;5.048;2022-12-29T06:34:17;99958.09;;;12.53;65.33
69535;BME280;56754;51.568;5.048;2022-12-29T06:36:42;99946.97;;;12.51;66.95
69535;BME280;56754;51.568;5.048;2022-12-29T06:39:07;99951.19;;;12.52;67.71
69535;BME280;56754;51.568;5.048;2022-12-29T06:41:33;99965.72;;;12.51;68.24
69535;BME280;56754;51.568;5.048;2022-12-29T06:43:58;99956.88;;;12.51;67.27
69535;BME280;56754;51.568;5.048;2022-12-29T06:46:23;99959.56;;;12.51;66.88
69535;BME280;56754;51.568;5.048;2022-12-29T06:48:49;99963.72;;;12.48;67.60
69535;BME280;56754;51.568;5.048;2022-12-29T06:51:14;99960.59;;;12.46;66.80
69535;BME280;56754;51.568;5.048;2022-12-29T06:53:39;99969.09;;;12.48;68.42
69535;BME280;56754;51.568;5.048;2022-12-29T06:56:05;99968.72;;;12.50;67.21
69535;BME280;56754;51.568;5.048;2022-12-29T06:58:30;99984.38;;;12.48;66.66
69535;BME280;56754;51.568;5.048;2022-12-29T07:00:56;99974.00;;;12.46;66.38
69535;BME280;56754;51.568;5.048;2022-12-29T07:03:21;99990.09;;;12.46;66.83
69535;BME280;56754;51.568;5.048;2022-12-29T07:05:46;99986.28;;;12.47;67.80
69535;BME280;56754;51.568;5.048;2022-12-29T07:08:11;99979.38;;;12.46;65.51
69535;BME280;56754;51.568;5.048;2022-12-29T07:10:37;99982.38;;;12.45;64.83
69535;BME280;56754;51.568;5.048;2022-12-29T07:13:02;99994.59;;;12.42;66.95
69535;BME280;56754;51.568;5.048;2022-12-29T07:15:27;99993.00;;;12.41;66.40
69535;BME280;56754;51.568;5.048;2022-12-29T07:17:54;99993.78;;;12.42;64.85
69535;BME280;56754;51.568;5.048;2022-12-29T07:20:19;100003.28;;;12.39;65.69
69535;BME280;56754;51.568;5.048;2022-12-29T07:22:44;100013.22;;;12.39;64.12
69535;BME280;56754;51.568;5.048;2022-12-29T07:25:09;100007.84;;;12.39;66.41
69535;BME280;56754;51.568;5.048;2022-12-29T07:27:35;100010.13;;;12.37;65.49
69535;BME280;56754;51.568;5.048;2022-12-29T07:30:00;100008.13;;;12.34;62.72
69535;BME280;56754;51.568;5.048;2022-12-29T07:32:25;100005.00;;;12.32;65.23
69535;BME280;56754;51.568;5.048;2022-12-29T07:34:51;100014.94;;;12.31;64.83
69535;BME280;56754;51.568;5.048;2022-12-29T07:37:16;100021.06;;;12.32;65.51
69535;BME280;56754;51.568;5.048;2022-12-29T07:39:41;100022.97;;;12.31;64.96
69535;BME280;56754;51.568;5.048;2022-12-29T07:42:06;100016.47;;;12.32;66.80
69535;BME280;56754;51.568;5.048;2022-12-29T07:44:32;100022.63;;;12.33;67.33
69535;BME280;56754;51.568;5.048;2022-12-29T07:46:58;100023.84;;;12.35;67.31
69535;BME280;56754;51.568;5.048;2022-12-29T07:49:24;100035.34;;;12.36;65.35
69535;BME280;56754;51.568;5.048;2022-12-29T07:51:49;100037.59;;;12.34;66.03
69535;BME280;56754;51.568;5.048;2022-12-29T07:54:14;100030.34;;;12.34;66.90
69535;BME280;56754;51.568;5.048;2022-12-29T07:56:39;100054.09;;;12.36;65.34
69535;BME280;56754;51.568;5.048;2022-12-29T07:59:05;100047.19;;;12.35;67.07
69535;BME280;56754;51.568;5.048;2022-12-29T08:01:30;100049.41;;;12.33;64.80
69535;BME280;56754;51.568;5.048;2022-12-29T08:03:55;100059.34;;;12.32;66.32
69535;BME280;56754;51.568;5.048;2022-12-29T08:06:21;100051.31;;;12.32;66.56
69535;BME280;56754;51.568;5.048;2022-12-29T08:08:46;100045.63;;;12.34;66.48
69535;BME280;56754;51.568;5.048;2022-12-29T08:11:11;100042.59;;;12.35;68.16
69535;BME280;56754;51.568;5.048;2022-12-29T08:13:36;100052.19;;;12.36;66.90
69535;BME280;56754;51.568;5.048;2022-12-29T08:16:02;100048.06;;;12.39;68.10
69535;BME280;56754;51.568;5.048;2022-12-29T08:18:27;100041.59;;;12.40;68.40
69535;BME280;56754;51.568;5.048;2022-12-29T08:20:52;100035.09;;;12.41;66.72
69535;BME280;56754;51.568;5.048;2022-12-29T08:23:18;100032.75;;;12.39;67.35
69535;BME280;56754;51.568;5.048;2022-12-29T08:25:43;100031.19;;;12.38;66.94
69535;BME280;56754;51.568;5.048;2022-12-29T08:28:08;100030.44;;;12.38;66.91
69535;BME280;56754;51.568;5.048;2022-12-29T08:30:35;100032.75;;;12.39;67.69
69535;BME280;56754;51.568;5.048;2022-12-29T08:33:02;100029.59;;;12.49;68.01
69535;BME280;56754;51.568;5.048;2022-12-29T08:35:27;100033.59;;;12.56;65.11
69535;BME280;56754;51.568;5.048;2022-12-29T08:37:52;100035.25;;;12.60;66.31
69535;BME280;56754;51.568;5.048;2022-12-29T08:40:18;100035.34;;;12.64;66.84
69535;BME280;56754;51.568;5.048;2022-12-29T08:42:43;100039.25;;;12.66;65.46
69535;BME280;56754;51.568;5.048;2022-12-29T08:45:08;100040.38;;;12.65;65.24
69535;BME280;56754;51.568;5.048;2022-12-29T08:47:34;100042.72;;;12.67;64.99
69535;BME280;56754;51.568;5.048;2022-12-29T08:49:59;100051.53;;;12.67;65.15
69535;BME280;56754;51.568;5.048;2022-12-29T08:52:24;100044.25;;;12.68;65.37
69535;BME280;56754;51.568;5.048;2022-12-29T08:54:50;100046.94;;;12.68;65.05
69535;BME280;56754;51.568;5.048;2022-12-29T08:57:15;100074.53;;;12.68;64.70
69535;BME280;56754;51.568;5.048;2022-12-29T08:59:40;100044.94;;;12.65;63.13
69535;BME280;56754;51.568;5.048;2022-12-29T09:02:08;100052.22;;;12.64;62.48
69535;BME280;56754;51.568;5.048;2022-12-29T09:04:34;100051.78;;;12.62;63.29
69535;BME280;56754;51.568;5.048;2022-12-29T09:07:00;100052.13;;;12.61;61.66
69535;BME280;56754;51.568;5.048;2022-12-29T09:09:25;100057.91;;;12.63;63.85
69535;BME280;56754;51.568;5.048;2022-12-29T09:11:50;100070.22;;;12.64;63.63
69535;BME280;56754;51.568;5.048;2022-12-29T09:14:16;100074.78;;;12.63;62.51
69535;BME280;56754;51.568;5.048;2022-12-29T09:16:41;100077.91;;;12.65;64.08
69535;BME280;56754;51.568;5.048;2022-12-29T09:19:06;100092.44;;;12.64;62.40
69535;BME280;56754;51.568;5.048;2022-12-29T09:21:31;100090.97;;;12.67;63.95
69535;BME280;56754;51.568;5.048;2022-12-29T09:23:57;100088.75;;;12.69;63.40
69535;BME280;56754;51.568;5.048;2022-12-29T09:26:22;100093.31;;;12.68;63.23
69535;BME280;56754;51.568;5.048;2022-12-29T09:28:47;100090.63;;;12.68;64.01
69535;BME280;56754;51.568;5.048;2022-12-29T09:31:13;100100.25;;;12.69;64.54
69535;BME280;56754;51.568;5.048;2022-12-29T09:33:38;100117.09;;;12.70;64.95
69535;BME280;56754;51.568;5.048;2022-12-29T09:36:03;100131.63;;;12.69;65.29
69535;BME280;56754;51.568;5.048;2022-12-29T09:38:29;100133.19;;;12.70;65.67
69535;BME280;56754;51.568;5.048;2022-12-29T09:41:15;100134.97;;;12.66;65.24
69535;BME280;56754;51.568;5.048;2022-12-29T09:46:51;100151.63;;;12.59;65.50
69535;BME280;56754;51.568;5.048;2022-12-29T09:51:52;100184.94;;;12.58;66.40
69535;BME280;56754;51.568;5.048;2022-12-29T09:56:44;100189.53;;;12.58;66.39
69535;BME280;56754;51.568;5.048;2022-12-29T09:59:14;100181.03;;;12.56;66.36
69535;BME280;56754;51.568;5.048;2022-12-29T10:01:47;100192.09;;;12.54;66.16
69535;BME280;56754;51.568;5.048;2022-12-29T10:04:16;100197.78;;;12.52;66.59
69535;BME280;56754;51.568;5.048;2022-12-29T10:07:04;100197.00;;;12.52;66.93
69535;BME280;56754;51.568;5.048;2022-12-29T10:15:37;100227.50;;;12.47;67.32
69535;BME280;56754;51.568;5.048;2022-12-29T10:20:52;100233.63;;;12.48;67.02
69535;BME280;56754;51.568;5.048;2022-12-29T10:23:26;100227.50;;;12.47;66.73
69535;BME280;56754;51.568;5.048;2022-12-29T10:25:55;100236.97;;;12.45;66.65
69535;BME280;56754;51.568;5.048;2022-12-29T10:30:49;100245.38;;;12.43;66.86
69535;BME280;56754;51.568;5.048;2022-12-29T10:33:32;100255.75;;;12.45;67.44
69535;BME280;56754;51.568;5.048;2022-12-29T10:36:04;100256.19;;;12.47;67.46
69535;BME280;56754;51.568;5.048;2022-12-29T10:38:35;100252.06;;;12.49;66.79
69535;BME280;56754;51.568;5.048;2022-12-29T10:43:45;100270.38;;;12.47;66.74
69535;BME280;56754;51.568;5.048;2022-12-29T10:46:14;100275.75;;;12.47;66.89
69535;BME280;56754;51.568;5.048;2022-12-29T10:48:41;100272.28;;;12.47;66.71
69535;BME280;56754;51.568;5.048;2022-12-29T10:51:08;100279.56;;;12.46;66.84
69535;BME280;56754;51.568;5.048;2022-12-29T10:53:45;100280.31;;;12.47;66.95
69535;BME280;56754;51.568;5.048;2022-12-29T10:56:27;100294.50;;;12.47;66.76
69535;BME280;56754;51.568;5.048;2022-12-29T10:58:57;100303.78;;;12.50;67.14
69535;BME280;56754;51.568;5.048;2022-12-29T11:01:31;100295.75;;;12.50;66.66
69535;BME280;56754;51.568;5.048;2022-12-29T11:04:04;100293.06;;;12.50;66.48
69535;BME280;56754;51.568;5.048;2022-12-29T11:06:30;100304.56;;;12.50;66.24
69535;BME280;56754;51.568;5.048;2022-12-29T11:09:36;100300.78;;;12.51;66.77
69535;BME280;56754;51.568;5.048;2022-12-29T11:11:53;100296.97;;;12.52;66.03
69535;BME280;56754;51.568;5.048;2022-12-29T11:14:21;100315.75;;;12.52;65.72
69535;BME280;56754;51.568;5.048;2022-12-29T11:17:00;100302.34;;;12.52;65.87
69535;BME280;56754;51.568;5.048;2022-12-29T11:19:28;100315.75;;;12.52;65.95
69535;BME280;56754;51.568;5.048;2022-12-29T11:21:54;100303.88;;;12.53;66.47
69535;BME280;56754;51.568;5.048;2022-12-29T11:26:49;100319.31;;;12.57;66.15
69535;BME280;56754;51.568;5.048;2022-12-29T11:29:24;100320.88;;;12.58;65.59
69535;BME280;56754;51.568;5.048;2022-12-29T11:31:52;100319.31;;;12.57;65.47
69535;BME280;56754;51.568;5.048;2022-12-29T11:36:52;100342.66;;;12.56;66.04
69535;BME280;56754;51.568;5.048;2022-12-29T11:41:54;100333.16;;;12.59;65.95
69535;BME280;56754;51.568;5.048;2022-12-29T11:44:20;100325.13;;;12.59;65.16
69535;BME280;56754;51.568;5.048;2022-12-29T11:46:48;100336.19;;;12.57;65.38
69535;BME280;56754;51.568;5.048;2022-12-29T11:49:22;100336.19;;;12.57;65.45
69535;BME280;56754;51.568;5.048;2022-12-29T11:51:50;100339.66;;;12.58;65.68
69535;BME280;56754;51.568;5.048;2022-12-29T11:54:36;100343.13;;;12.58;65.29
69535;BME280;56754;51.568;5.048;2022-12-29T11:57:29;100346.56;;;12.59;65.30
69535;BME280;56754;51.568;5.048;2022-12-29T11:59:57;100333.63;;;12.61;65.64
69535;BME280;56754;51.568;5.048;2022-12-29T12:02:41;100333.63;;;12.61;65.43
69535;BME280;56754;51.568;5.048;2022-12-29T12:05:26;100336.31;;;12.61;65.27
69535;BME280;56754;51.568;5.048;2022-12-29T12:08:08;100342.75;;;12.60;65.57
69535;BME280;56754;51.568;5.048;2022-12-29T12:10:42;100334.41;;;12.61;64.91
69535;BME280;56754;51.568;5.048;2022-12-29T12:13:36;100349.72;;;12.61;65.02
69535;BME280;56754;51.568;5.048;2022-12-29T12:16:08;100347.69;;;12.58;64.82
69535;BME280;56754;51.568;5.048;2022-12-29T12:18:47;100351.47;;;12.57;65.41
69535;BME280;56754;51.568;5.048;2022-12-29T12:21:25;100347.69;;;12.58;65.98
69535;BME280;56754;51.568;5.048;2022-12-29T12:24:15;100339.31;;;12.59;65.95
69535;BME280;56754;51.568;5.048;2022-12-29T12:27:09;100360.75;;;12.59;66.20
69535;BME280;56754;51.568;5.048;2022-12-29T12:30:02;100343.88;;;12.59;66.23
69535;BME280;56754;51.568;5.048;2022-12-29T12:35:45;100361.97;;;12.62;66.54
69535;BME280;56754;51.568;5.048;2022-12-29T12:38:28;100361.97;;;12.62;66.43
69535;BME280;56754;51.568;5.048;2022-12-29T12:41:04;100360.09;;;12.62;66.42
69535;BME280;56754;51.568;5.048;2022-12-29T12:50:00;100361.22;;;12.61;66.29
69535;BME280;56754;51.568;5.048;2022-12-29T13:00:03;100365.78;;;12.61;65.99
69535;BME280;56754;51.568;5.048;2022-12-29T13:02:42;100391.03;;;12.60;65.76
69535;BME280;56754;51.568;5.048;2022-12-29T13:05:56;100398.75;;;12.61;66.23
69535;BME280;56754;51.568;5.048;2022-12-29T13:11:14;100411.81;;;12.63;66.29
69535;BME280;56754;51.568;5.048;2022-12-29T13:13:55;100392.59;;;12.61;66.42
69535;BME280;56754;51.568;5.048;2022-12-29T13:21:47;100396.06;;;12.61;67.10
69535;BME280;56754;51.568;5.048;2022-12-29T13:24:46;100385.34;;;12.61;67.27
69535;BME280;56754;51.568;5.048;2022-12-29T13:37:20;100395.72;;;12.63;67.55
69535;BME280;56754;51.568;5.048;2022-12-29T13:39:54;100396.53;;;12.63;67.56
69535;BME280;56754;51.568;5.048;2022-12-29T13:42:22;100394.16;;;12.62;67.69
69535;BME280;56754;51.568;5.048;2022-12-29T13:45:06;100386.13;;;12.62;67.51
69535;BME280;56754;51.568;5.048;2022-12-29T13:47:40;100400.66;;;12.61;67.56
69535;BME280;56754;51.568;5.048;2022-12-29T13:50:22;100397.97;;;12.61;67.67
69535;BME280;56754;51.568;5.048;2022-12-29T13:52:50;100398.75;;;12.61;67.60
69535;BME280;56754;51.568;5.048;2022-12-29T13:55:27;100400.31;;;12.62;67.58
69535;BME280;56754;51.568;5.048;2022-12-29T14:03:52;100403.31;;;12.61;67.53
69535;BME280;56754;51.568;5.048;2022-12-29T14:06:32;100398.63;;;12.58;67.46
69535;BME280;56754;51.568;5.048;2022-12-29T14:09:01;100398.63;;;12.58;67.57
69535;BME280;56754;51.568;5.048;2022-12-29T14:11:33;100406.22;;;12.56;67.42
69535;BME280;56754;51.568;5.048;2022-12-29T14:14:10;100406.22;;;12.56;67.72
69535;BME280;56754;51.568;5.048;2022-12-29T14:16:36;100403.53;;;12.56;67.68
69535;BME280;56754;51.568;5.048;2022-12-29T14:19:11;100407.34;;;12.55;67.36
69535;BME280;56754;51.568;5.048;2022-12-29T14:21:38;100412.25;;;12.52;67.67
69535;BME280;56754;51.568;5.048;2022-12-29T14:26:58;100408.00;;;12.51;67.61
69535;BME280;56754;51.568;5.048;2022-12-29T14:31:49;100420.94;;;12.49;67.95
69535;BME280;56754;51.568;5.048;2022-12-29T14:36:59;100421.25;;;12.48;67.89
69535;BME280;56754;51.568;5.048;2022-12-29T14:39:44;100426.97;;;12.46;67.89
69535;BME280;56754;51.568;5.048;2022-12-29T14:45:00;100428.88;;;12.46;67.69
69535;BME280;56754;51.568;5.048;2022-12-29T14:47:35;100426.50;;;12.44;67.91
69535;BME280;56754;51.568;5.048;2022-12-29T14:52:45;100426.06;;;12.42;67.97
69535;BME280;56754;51.568;5.048;2022-12-29T14:57:47;100434.44;;;12.41;67.53